sensor_id;sensor_type;location;lat;lon;timestamp;P1;durP1;ratioP1;P2;durP2;ratioP2
25838;SDS011;13669;50.186;27.062;2022-10-15T00:00:50;13.57;;;6.95;;
25838;SDS011;13669;50.186;27.062;2022-10-15T00:03:18;15.13;;;7.50;;
25838;SDS011;13669;50.186;27.062;2022-10-15T00:05:45;17.10;;;7.07;;
25838;SDS011;13669;50.186;27.062;2022-10-15T00:08:13;13.95;;;7.07;;
25838;SDS011;13669;50.186;27.062;2022-10-15T00:10:40;16.10;;;6.78;;
25838;SDS011;13669;50.186;27.062;2022-10-15T00:13:07;13.13;;;7.07;;
25838;SDS011;13669;50.186;27.062;2022-10-15T00:15:35;15.95;;;7.40;;
25838;SDS011;13669;50.186;27.062;2022-10-15T00:18:03;18.10;;;7.40;;
25838;SDS011;13669;50.186;27.062;2022-10-15T00:20:31;15.15;;;7.60;;
25838;SDS011;13669;50.186;27.062;2022-10-15T00:22:58;16.23;;;7.72;;
25838;SDS011;13669;50.186;27.062;2022-10-15T00:25:25;19.13;;;8.65;;
25838;SDS011;13669;50.186;27.062;2022-10-15T00:27:54;14.07;;;7.70;;
25838;SDS011;13669;50.186;27.062;2022-10-15T00:30:21;14.75;;;7.82;;
25838;SDS011;13669;50.186;27.062;2022-10-15T00:32:48;14.85;;;7.75;;
25838;SDS011;13669;50.186;27.062;2022-10-15T00:35:16;14.05;;;7.22;;
25838;SDS011;13669;50.186;27.062;2022-10-15T00:37:43;16.15;;;7.90;;
25838;SDS011;13669;50.186;27.062;2022-10-15T00:40:11;13.40;;;7.43;;
25838;SDS011;13669;50.186;27.062;2022-10-15T00:42:41;13.73;;;7.32;;
25838;SDS011;13669;50.186;27.062;2022-10-15T00:45:10;15.73;;;7.40;;
25838;SDS011;13669;50.186;27.062;2022-10-15T00:50:12;14.32;;;7.10;;
25838;SDS011;13669;50.186;27.062;2022-10-15T00:52:44;13.85;;;7.50;;
25838;SDS011;13669;50.186;27.062;2022-10-15T00:55:21;13.82;;;6.60;;
25838;SDS011;13669;50.186;27.062;2022-10-15T00:57:52;14.32;;;6.63;;
25838;SDS011;13669;50.186;27.062;2022-10-15T01:00:21;15.68;;;7.10;;
25838;SDS011;13669;50.186;27.062;2022-10-15T01:02:49;16.73;;;6.53;;
25838;SDS011;13669;50.186;27.062;2022-10-15T01:05:17;18.20;;;6.88;;
25838;SDS011;13669;50.186;27.062;2022-10-15T01:07:45;17.00;;;7.32;;
25838;SDS011;13669;50.186;27.062;2022-10-15T01:10:13;12.75;;;6.78;;
25838;SDS011;13669;50.186;27.062;2022-10-15T01:15:48;13.38;;;6.30;;
25838;SDS011;13669;50.186;27.062;2022-10-15T01:18:56;13.45;;;6.25;;
25838;SDS011;13669;50.186;27.062;2022-10-15T01:27:38;10.57;;;5.85;;
25838;SDS011;13669;50.186;27.062;2022-10-15T01:32:49;13.05;;;6.70;;
25838;SDS011;13669;50.186;27.062;2022-10-15T01:35:22;13.82;;;5.82;;
25838;SDS011;13669;50.186;27.062;2022-10-15T01:37:59;14.23;;;6.38;;
25838;SDS011;13669;50.186;27.062;2022-10-15T01:46:40;13.90;;;6.15;;
25838;SDS011;13669;50.186;27.062;2022-10-15T01:49:13;14.82;;;6.57;;
25838;SDS011;13669;50.186;27.062;2022-10-15T01:51:47;11.05;;;6.07;;
25838;SDS011;13669;50.186;27.062;2022-10-15T01:54:17;14.35;;;6.00;;
25838;SDS011;13669;50.186;27.062;2022-10-15T01:56:47;12.00;;;5.70;;
25838;SDS011;13669;50.186;27.062;2022-10-15T01:59:24;13.73;;;6.40;;
25838;SDS011;13669;50.186;27.062;2022-10-15T02:01:54;11.82;;;5.70;;
25838;SDS011;13669;50.186;27.062;2022-10-15T02:04:25;12.77;;;5.90;;
25838;SDS011;13669;50.186;27.062;2022-10-15T02:06:57;14.55;;;5.72;;
25838;SDS011;13669;50.186;27.062;2022-10-15T02:10:09;12.10;;;5.78;;
25838;SDS011;13669;50.186;27.062;2022-10-15T02:13:01;11.38;;;5.63;;
25838;SDS011;13669;50.186;27.062;2022-10-15T02:15:46;13.65;;;5.70;;
25838;SDS011;13669;50.186;27.062;2022-10-15T02:18:39;16.48;;;5.95;;
25838;SDS011;13669;50.186;27.062;2022-10-15T02:21:34;12.57;;;5.78;;
25838;SDS011;13669;50.186;27.062;2022-10-15T02:24:37;10.73;;;5.75;;
25838;SDS011;13669;50.186;27.062;2022-10-15T02:27:21;13.63;;;6.05;;
25838;SDS011;13669;50.186;27.062;2022-10-15T02:29:50;12.95;;;5.32;;
25838;SDS011;13669;50.186;27.062;2022-10-15T02:32:19;12.40;;;5.63;;
25838;SDS011;13669;50.186;27.062;2022-10-15T02:34:49;11.85;;;5.07;;
25838;SDS011;13669;50.186;27.062;2022-10-15T02:37:19;10.25;;;4.80;;
25838;SDS011;13669;50.186;27.062;2022-10-15T02:39:49;10.15;;;5.30;;
25838;SDS011;13669;50.186;27.062;2022-10-15T02:42:16;13.88;;;5.80;;
25838;SDS011;13669;50.186;27.062;2022-10-15T02:44:45;13.98;;;6.22;;
25838;SDS011;13669;50.186;27.062;2022-10-15T02:47:12;14.45;;;6.03;;
25838;SDS011;13669;50.186;27.062;2022-10-15T02:49:40;14.32;;;5.93;;
25838;SDS011;13669;50.186;27.062;2022-10-15T02:52:07;12.27;;;5.22;;
25838;SDS011;13669;50.186;27.062;2022-10-15T02:54:35;13.75;;;5.53;;
25838;SDS011;13669;50.186;27.062;2022-10-15T02:57:02;11.52;;;5.65;;
25838;SDS011;13669;50.186;27.062;2022-10-15T02:59:30;11.82;;;5.53;;
25838;SDS011;13669;50.186;27.062;2022-10-15T03:01:57;11.90;;;5.40;;
25838;SDS011;13669;50.186;27.062;2022-10-15T03:04:25;13.50;;;5.32;;
25838;SDS011;13669;50.186;27.062;2022-10-15T03:06:52;11.10;;;5.30;;
25838;SDS011;13669;50.186;27.062;2022-10-15T03:09:19;8.80;;;4.65;;
25838;SDS011;13669;50.186;27.062;2022-10-15T03:11:47;12.70;;;4.75;;
25838;SDS011;13669;50.186;27.062;2022-10-15T03:14:14;12.63;;;5.22;;
25838;SDS011;13669;50.186;27.062;2022-10-15T03:16:42;15.35;;;5.45;;
25838;SDS011;13669;50.186;27.062;2022-10-15T03:19:09;11.18;;;4.95;;
25838;SDS011;13669;50.186;27.062;2022-10-15T03:21:37;10.35;;;5.03;;
25838;SDS011;13669;50.186;27.062;2022-10-15T03:24:04;8.93;;;4.75;;
25838;SDS011;13669;50.186;27.062;2022-10-15T03:26:32;10.52;;;3.97;;
25838;SDS011;13669;50.186;27.062;2022-10-15T03:28:59;15.77;;;4.95;;
25838;SDS011;13669;50.186;27.062;2022-10-15T03:31:27;10.32;;;4.30;;
25838;SDS011;13669;50.186;27.062;2022-10-15T03:33:54;11.60;;;5.43;;
25838;SDS011;13669;50.186;27.062;2022-10-15T03:36:21;9.32;;;4.75;;
25838;SDS011;13669;50.186;27.062;2022-10-15T03:38:49;12.50;;;5.10;;
25838;SDS011;13669;50.186;27.062;2022-10-15T03:41:16;11.40;;;5.15;;
25838;SDS011;13669;50.186;27.062;2022-10-15T03:43:44;9.68;;;4.72;;
25838;SDS011;13669;50.186;27.062;2022-10-15T03:46:11;9.55;;;5.00;;
25838;SDS011;13669;50.186;27.062;2022-10-15T03:48:39;10.32;;;4.70;;
25838;SDS011;13669;50.186;27.062;2022-10-15T03:51:06;8.93;;;3.97;;
25838;SDS011;13669;50.186;27.062;2022-10-15T03:53:33;10.35;;;4.95;;
25838;SDS011;13669;50.186;27.062;2022-10-15T03:56:02;14.15;;;5.00;;
25838;SDS011;13669;50.186;27.062;2022-10-15T03:58:30;10.20;;;4.85;;
25838;SDS011;13669;50.186;27.062;2022-10-15T04:00:57;9.10;;;4.40;;
25838;SDS011;13669;50.186;27.062;2022-10-15T04:03:25;9.52;;;4.78;;
25838;SDS011;13669;50.186;27.062;2022-10-15T04:05:52;10.60;;;4.47;;
25838;SDS011;13669;50.186;27.062;2022-10-15T04:08:22;12.43;;;5.03;;
25838;SDS011;13669;50.186;27.062;2022-10-15T04:10:49;14.75;;;5.35;;
25838;SDS011;13669;50.186;27.062;2022-10-15T04:13:17;9.70;;;4.63;;
25838;SDS011;13669;50.186;27.062;2022-10-15T04:15:44;12.35;;;4.85;;
25838;SDS011;13669;50.186;27.062;2022-10-15T04:18:12;10.60;;;5.03;;
25838;SDS011;13669;50.186;27.062;2022-10-15T04:20:40;12.70;;;5.22;;
25838;SDS011;13669;50.186;27.062;2022-10-15T04:23:08;13.57;;;5.00;;
25838;SDS011;13669;50.186;27.062;2022-10-15T04:25:36;11.15;;;4.68;;
25838;SDS011;13669;50.186;27.062;2022-10-15T04:28:03;10.48;;;4.63;;
25838;SDS011;13669;50.186;27.062;2022-10-15T04:30:31;10.43;;;4.30;;
25838;SDS011;13669;50.186;27.062;2022-10-15T04:32:58;8.05;;;4.30;;
25838;SDS011;13669;50.186;27.062;2022-10-15T04:35:26;10.68;;;5.05;;
25838;SDS011;13669;50.186;27.062;2022-10-15T04:37:55;9.95;;;4.72;;
25838;SDS011;13669;50.186;27.062;2022-10-15T04:40:24;8.98;;;4.82;;
25838;SDS011;13669;50.186;27.062;2022-10-15T04:42:51;9.48;;;4.45;;
25838;SDS011;13669;50.186;27.062;2022-10-15T04:45:19;10.13;;;5.15;;
25838;SDS011;13669;50.186;27.062;2022-10-15T04:47:46;8.85;;;4.70;;
25838;SDS011;13669;50.186;27.062;2022-10-15T04:50:14;9.82;;;5.10;;
25838;SDS011;13669;50.186;27.062;2022-10-15T04:52:41;13.60;;;5.30;;
25838;SDS011;13669;50.186;27.062;2022-10-15T04:55:09;17.17;;;5.68;;
25838;SDS011;13669;50.186;27.062;2022-10-15T04:57:36;10.15;;;4.72;;
25838;SDS011;13669;50.186;27.062;2022-10-15T05:00:04;11.52;;;4.50;;
25838;SDS011;13669;50.186;27.062;2022-10-15T05:02:32;6.95;;;4.18;;
25838;SDS011;13669;50.186;27.062;2022-10-15T05:05:00;8.68;;;4.65;;
25838;SDS011;13669;50.186;27.062;2022-10-15T05:07:27;8.43;;;4.03;;
25838;SDS011;13669;50.186;27.062;2022-10-15T05:09:55;12.35;;;4.25;;
25838;SDS011;13669;50.186;27.062;2022-10-15T05:12:22;8.25;;;3.90;;
25838;SDS011;13669;50.186;27.062;2022-10-15T05:14:49;7.88;;;3.80;;
25838;SDS011;13669;50.186;27.062;2022-10-15T05:17:17;7.97;;;4.10;;
25838;SDS011;13669;50.186;27.062;2022-10-15T05:19:44;10.32;;;4.40;;
25838;SDS011;13669;50.186;27.062;2022-10-15T05:22:12;7.47;;;4.10;;
25838;SDS011;13669;50.186;27.062;2022-10-15T05:24:39;9.25;;;3.95;;
25838;SDS011;13669;50.186;27.062;2022-10-15T05:27:06;11.02;;;4.00;;
25838;SDS011;13669;50.186;27.062;2022-10-15T05:29:34;7.18;;;3.90;;
25838;SDS011;13669;50.186;27.062;2022-10-15T05:32:01;8.85;;;3.78;;
25838;SDS011;13669;50.186;27.062;2022-10-15T05:34:29;8.73;;;3.80;;
25838;SDS011;13669;50.186;27.062;2022-10-15T05:36:56;6.93;;;3.67;;
25838;SDS011;13669;50.186;27.062;2022-10-15T05:39:24;5.97;;;3.15;;
25838;SDS011;13669;50.186;27.062;2022-10-15T05:41:51;7.43;;;3.47;;
25838;SDS011;13669;50.186;27.062;2022-10-15T05:44:19;9.20;;;3.67;;
25838;SDS011;13669;50.186;27.062;2022-10-15T05:46:46;10.68;;;3.30;;
25838;SDS011;13669;50.186;27.062;2022-10-15T05:49:14;4.50;;;2.95;;
25838;SDS011;13669;50.186;27.062;2022-10-15T05:51:41;6.57;;;3.50;;
25838;SDS011;13669;50.186;27.062;2022-10-15T05:54:09;6.50;;;3.60;;
25838;SDS011;13669;50.186;27.062;2022-10-15T05:56:36;6.55;;;3.28;;
25838;SDS011;13669;50.186;27.062;2022-10-15T05:59:04;8.70;;;3.42;;
25838;SDS011;13669;50.186;27.062;2022-10-15T06:01:31;7.45;;;3.28;;
25838;SDS011;13669;50.186;27.062;2022-10-15T06:03:58;6.95;;;3.65;;
25838;SDS011;13669;50.186;27.062;2022-10-15T06:06:26;5.88;;;3.53;;
25838;SDS011;13669;50.186;27.062;2022-10-15T06:08:54;7.32;;;3.45;;
25838;SDS011;13669;50.186;27.062;2022-10-15T06:11:21;9.70;;;4.25;;
25838;SDS011;13669;50.186;27.062;2022-10-15T06:13:49;13.65;;;3.70;;
25838;SDS011;13669;50.186;27.062;2022-10-15T06:16:16;7.72;;;3.47;;
25838;SDS011;13669;50.186;27.062;2022-10-15T06:18:52;7.57;;;3.35;;
25838;SDS011;13669;50.186;27.062;2022-10-15T06:21:20;9.43;;;3.58;;
25838;SDS011;13669;50.186;27.062;2022-10-15T06:23:47;5.35;;;3.22;;
25838;SDS011;13669;50.186;27.062;2022-10-15T06:26:15;9.48;;;3.42;;
25838;SDS011;13669;50.186;27.062;2022-10-15T06:28:43;12.43;;;3.78;;
25838;SDS011;13669;50.186;27.062;2022-10-15T06:31:10;8.93;;;3.70;;
25838;SDS011;13669;50.186;27.062;2022-10-15T06:33:38;7.10;;;3.65;;
25838;SDS011;13669;50.186;27.062;2022-10-15T06:36:06;8.13;;;3.88;;
25838;SDS011;13669;50.186;27.062;2022-10-15T06:38:35;8.35;;;3.28;;
25838;SDS011;13669;50.186;27.062;2022-10-15T06:41:03;8.45;;;4.30;;
25838;SDS011;13669;50.186;27.062;2022-10-15T06:43:31;8.95;;;4.35;;
25838;SDS011;13669;50.186;27.062;2022-10-15T06:46:02;7.45;;;4.00;;
25838;SDS011;13669;50.186;27.062;2022-10-15T06:48:31;10.70;;;4.55;;
25838;SDS011;13669;50.186;27.062;2022-10-15T06:50:59;11.52;;;4.40;;
25838;SDS011;13669;50.186;27.062;2022-10-15T06:53:27;9.40;;;5.00;;
25838;SDS011;13669;50.186;27.062;2022-10-15T06:55:59;7.40;;;4.38;;
25838;SDS011;13669;50.186;27.062;2022-10-15T06:58:28;11.15;;;4.85;;
25838;SDS011;13669;50.186;27.062;2022-10-15T07:00:59;10.73;;;5.25;;
25838;SDS011;13669;50.186;27.062;2022-10-15T07:03:28;13.60;;;5.78;;
25838;SDS011;13669;50.186;27.062;2022-10-15T07:06:00;13.35;;;5.40;;
25838;SDS011;13669;50.186;27.062;2022-10-15T07:08:29;13.05;;;6.05;;
25838;SDS011;13669;50.186;27.062;2022-10-15T07:10:56;20.52;;;6.72;;
25838;SDS011;13669;50.186;27.062;2022-10-15T07:13:24;11.23;;;4.97;;
25838;SDS011;13669;50.186;27.062;2022-10-15T07:15:51;9.63;;;4.97;;
25838;SDS011;13669;50.186;27.062;2022-10-15T07:18:21;10.07;;;5.05;;
25838;SDS011;13669;50.186;27.062;2022-10-15T07:20:49;9.52;;;5.40;;
25838;SDS011;13669;50.186;27.062;2022-10-15T07:23:16;11.50;;;5.80;;
25838;SDS011;13669;50.186;27.062;2022-10-15T07:25:44;12.63;;;6.22;;
25838;SDS011;13669;50.186;27.062;2022-10-15T07:28:11;15.05;;;6.05;;
25838;SDS011;13669;50.186;27.062;2022-10-15T07:30:39;12.68;;;5.65;;
25838;SDS011;13669;50.186;27.062;2022-10-15T07:33:06;10.00;;;5.22;;
25838;SDS011;13669;50.186;27.062;2022-10-15T07:35:33;13.43;;;5.53;;
25838;SDS011;13669;50.186;27.062;2022-10-15T07:38:03;9.95;;;4.95;;
25838;SDS011;13669;50.186;27.062;2022-10-15T07:40:30;10.77;;;5.47;;
25838;SDS011;13669;50.186;27.062;2022-10-15T07:42:58;12.10;;;5.82;;
25838;SDS011;13669;50.186;27.062;2022-10-15T07:45:28;14.88;;;5.95;;
25838;SDS011;13669;50.186;27.062;2022-10-15T07:47:55;13.18;;;6.10;;
25838;SDS011;13669;50.186;27.062;2022-10-15T07:50:23;13.75;;;6.68;;
25838;SDS011;13669;50.186;27.062;2022-10-15T07:52:56;14.23;;;6.55;;
25838;SDS011;13669;50.186;27.062;2022-10-15T07:55:23;13.32;;;6.38;;
25838;SDS011;13669;50.186;27.062;2022-10-15T07:57:51;9.63;;;6.00;;
25838;SDS011;13669;50.186;27.062;2022-10-15T08:00:21;10.60;;;5.65;;
25838;SDS011;13669;50.186;27.062;2022-10-15T08:02:49;11.80;;;6.13;;
25838;SDS011;13669;50.186;27.062;2022-10-15T08:05:16;10.13;;;6.05;;
25838;SDS011;13669;50.186;27.062;2022-10-15T08:07:44;11.52;;;6.35;;
25838;SDS011;13669;50.186;27.062;2022-10-15T08:10:11;11.77;;;5.45;;
25838;SDS011;13669;50.186;27.062;2022-10-15T08:12:39;10.90;;;5.53;;
25838;SDS011;13669;50.186;27.062;2022-10-15T08:15:06;11.40;;;5.57;;
25838;SDS011;13669;50.186;27.062;2022-10-15T08:17:34;10.40;;;5.30;;
25838;SDS011;13669;50.186;27.062;2022-10-15T08:20:02;12.05;;;5.40;;
25838;SDS011;13669;50.186;27.062;2022-10-15T08:22:30;11.00;;;5.50;;
25838;SDS011;13669;50.186;27.062;2022-10-15T08:24:58;12.02;;;5.68;;
25838;SDS011;13669;50.186;27.062;2022-10-15T08:27:26;11.10;;;5.28;;
25838;SDS011;13669;50.186;27.062;2022-10-15T08:29:53;8.80;;;4.30;;
25838;SDS011;13669;50.186;27.062;2022-10-15T08:32:21;9.40;;;4.50;;
25838;SDS011;13669;50.186;27.062;2022-10-15T08:34:48;8.40;;;4.80;;
25838;SDS011;13669;50.186;27.062;2022-10-15T08:37:16;8.80;;;4.80;;
25838;SDS011;13669;50.186;27.062;2022-10-15T08:39:43;7.63;;;3.85;;
25838;SDS011;13669;50.186;27.062;2022-10-15T08:42:13;9.68;;;4.13;;
25838;SDS011;13669;50.186;27.062;2022-10-15T08:44:57;9.85;;;3.88;;
25838;SDS011;13669;50.186;27.062;2022-10-15T08:47:30;9.88;;;4.70;;
25838;SDS011;13669;50.186;27.062;2022-10-15T08:52:47;8.50;;;3.42;;
25838;SDS011;13669;50.186;27.062;2022-10-15T08:55:17;10.48;;;3.95;;
25838;SDS011;13669;50.186;27.062;2022-10-15T08:58:05;7.82;;;3.55;;
25838;SDS011;13669;50.186;27.062;2022-10-15T09:03:37;10.73;;;4.05;;
25838;SDS011;13669;50.186;27.062;2022-10-15T09:11:55;7.75;;;3.60;;
25838;SDS011;13669;50.186;27.062;2022-10-15T09:14:42;6.70;;;3.72;;
25838;SDS011;13669;50.186;27.062;2022-10-15T09:17:22;9.48;;;3.60;;
25838;SDS011;13669;50.186;27.062;2022-10-15T09:19:53;6.60;;;3.05;;
25838;SDS011;13669;50.186;27.062;2022-10-15T09:22:23;7.20;;;3.38;;
25838;SDS011;13669;50.186;27.062;2022-10-15T09:24:53;7.40;;;3.20;;
25838;SDS011;13669;50.186;27.062;2022-10-15T09:27:34;7.63;;;2.58;;
25838;SDS011;13669;50.186;27.062;2022-10-15T09:35:31;8.32;;;2.92;;
25838;SDS011;13669;50.186;27.062;2022-10-15T09:43:47;5.57;;;2.63;;
25838;SDS011;13669;50.186;27.062;2022-10-15T09:46:17;7.32;;;2.67;;
25838;SDS011;13669;50.186;27.062;2022-10-15T09:48:50;6.80;;;2.38;;
25838;SDS011;13669;50.186;27.062;2022-10-15T09:51:31;8.32;;;2.63;;
25838;SDS011;13669;50.186;27.062;2022-10-15T09:57:04;9.10;;;2.85;;
25838;SDS011;13669;50.186;27.062;2022-10-15T09:59:36;5.53;;;2.63;;
25838;SDS011;13669;50.186;27.062;2022-10-15T10:04:45;11.32;;;2.92;;
25838;SDS011;13669;50.186;27.062;2022-10-15T10:10:04;8.82;;;2.63;;
25838;SDS011;13669;50.186;27.062;2022-10-15T10:12:48;8.20;;;3.10;;
25838;SDS011;13669;50.186;27.062;2022-10-15T10:17:55;5.45;;;2.58;;
25838;SDS011;13669;50.186;27.062;2022-10-15T10:20:29;10.55;;;2.88;;
25838;SDS011;13669;50.186;27.062;2022-10-15T10:22:58;5.28;;;2.15;;
25838;SDS011;13669;50.186;27.062;2022-10-15T10:30:48;5.22;;;1.92;;
25838;SDS011;13669;50.186;27.062;2022-10-15T10:33:20;5.75;;;1.90;;
25838;SDS011;13669;50.186;27.062;2022-10-15T10:35:56;6.20;;;2.20;;
25838;SDS011;13669;50.186;27.062;2022-10-15T10:38:32;5.78;;;2.08;;
25838;SDS011;13669;50.186;27.062;2022-10-15T10:41:05;6.10;;;2.00;;
25838;SDS011;13669;50.186;27.062;2022-10-15T10:43:38;9.07;;;2.15;;
25838;SDS011;13669;50.186;27.062;2022-10-15T10:48:41;5.63;;;1.65;;
25838;SDS011;13669;50.186;27.062;2022-10-15T10:51:22;5.07;;;2.25;;
25838;SDS011;13669;50.186;27.062;2022-10-15T10:56:35;6.60;;;2.88;;
25838;SDS011;13669;50.186;27.062;2022-10-15T11:01:45;8.82;;;2.35;;
25838;SDS011;13669;50.186;27.062;2022-10-15T11:04:13;5.80;;;2.15;;
25838;SDS011;13669;50.186;27.062;2022-10-15T11:12:29;7.13;;;3.22;;
25838;SDS011;13669;50.186;27.062;2022-10-15T11:43:31;6.35;;;2.47;;
25838;SDS011;13669;50.186;27.062;2022-10-15T11:58:05;7.03;;;2.20;;
25838;SDS011;13669;50.186;27.062;2022-10-15T12:00:49;2.97;;;1.65;;
25838;SDS011;13669;50.186;27.062;2022-10-15T12:03:23;6.88;;;2.05;;
25838;SDS011;13669;50.186;27.062;2022-10-15T12:06:02;3.78;;;2.03;;
25838;SDS011;13669;50.186;27.062;2022-10-15T12:08:34;4.28;;;2.08;;
25838;SDS011;13669;50.186;27.062;2022-10-15T12:19:25;4.13;;;1.90;;
25838;SDS011;13669;50.186;27.062;2022-10-15T12:22:08;7.18;;;2.00;;
25838;SDS011;13669;50.186;27.062;2022-10-15T12:32:26;3.72;;;1.73;;
25838;SDS011;13669;50.186;27.062;2022-10-15T12:34:57;3.10;;;1.45;;
25838;SDS011;13669;50.186;27.062;2022-10-15T12:37:31;3.67;;;2.15;;
25838;SDS011;13669;50.186;27.062;2022-10-15T12:40:05;5.82;;;1.58;;
25838;SDS011;13669;50.186;27.062;2022-10-15T12:45:51;3.22;;;1.70;;
25838;SDS011;13669;50.186;27.062;2022-10-15T12:53:50;4.70;;;1.80;;
25838;SDS011;13669;50.186;27.062;2022-10-15T12:56:22;6.80;;;2.05;;
25838;SDS011;13669;50.186;27.062;2022-10-15T12:58:54;5.20;;;2.05;;
25838;SDS011;13669;50.186;27.062;2022-10-15T13:11:18;4.82;;;1.63;;
25838;SDS011;13669;50.186;27.062;2022-10-15T13:16:59;4.47;;;1.60;;
25838;SDS011;13669;50.186;27.062;2022-10-15T13:22:05;3.53;;;1.80;;
25838;SDS011;13669;50.186;27.062;2022-10-15T13:24:45;6.90;;;2.05;;
25838;SDS011;13669;50.186;27.062;2022-10-15T13:27:14;3.97;;;1.75;;
25838;SDS011;13669;50.186;27.062;2022-10-15T13:32:29;6.57;;;2.50;;
25838;SDS011;13669;50.186;27.062;2022-10-15T13:35:02;4.88;;;2.13;;
25838;SDS011;13669;50.186;27.062;2022-10-15T13:37:37;4.63;;;1.80;;
25838;SDS011;13669;50.186;27.062;2022-10-15T13:40:07;3.95;;;2.00;;
25838;SDS011;13669;50.186;27.062;2022-10-15T13:42:56;6.22;;;1.90;;
25838;SDS011;13669;50.186;27.062;2022-10-15T13:45:25;5.65;;;2.00;;
25838;SDS011;13669;50.186;27.062;2022-10-15T13:47:53;6.57;;;2.10;;
25838;SDS011;13669;50.186;27.062;2022-10-15T13:55:27;6.63;;;1.80;;
25838;SDS011;13669;50.186;27.062;2022-10-15T13:58:02;5.53;;;2.00;;
25838;SDS011;13669;50.186;27.062;2022-10-15T14:03:47;3.83;;;1.70;;
25838;SDS011;13669;50.186;27.062;2022-10-15T14:08:47;4.20;;;1.90;;
25838;SDS011;13669;50.186;27.062;2022-10-15T14:11:16;3.90;;;1.93;;
25838;SDS011;13669;50.186;27.062;2022-10-15T14:13:49;6.88;;;1.98;;
25838;SDS011;13669;50.186;27.062;2022-10-15T14:18:48;4.07;;;2.30;;
25838;SDS011;13669;50.186;27.062;2022-10-15T14:21:24;4.53;;;2.40;;
25838;SDS011;13669;50.186;27.062;2022-10-15T14:26:38;6.15;;;2.00;;
25838;SDS011;13669;50.186;27.062;2022-10-15T14:29:06;6.10;;;1.95;;
25838;SDS011;13669;50.186;27.062;2022-10-15T14:31:46;5.07;;;2.33;;
25838;SDS011;13669;50.186;27.062;2022-10-15T14:42:41;8.45;;;2.53;;
25838;SDS011;13669;50.186;27.062;2022-10-15T14:47:45;8.25;;;3.22;;
25838;SDS011;13669;50.186;27.062;2022-10-15T14:50:14;27.70;;;16.17;;
25838;SDS011;13669;50.186;27.062;2022-10-15T14:52:47;199.65;;;62.63;;
25838;SDS011;13669;50.186;27.062;2022-10-15T14:57:50;108.80;;;50.15;;
25838;SDS011;13669;50.186;27.062;2022-10-15T15:00:23;19.63;;;10.18;;
25838;SDS011;13669;50.186;27.062;2022-10-15T15:02:56;12.45;;;7.40;;
25838;SDS011;13669;50.186;27.062;2022-10-15T15:05:25;9.57;;;4.40;;
25838;SDS011;13669;50.186;27.062;2022-10-15T15:07:54;9.95;;;5.00;;
25838;SDS011;13669;50.186;27.062;2022-10-15T15:10:23;11.93;;;6.22;;
25838;SDS011;13669;50.186;27.062;2022-10-15T15:12:53;10.70;;;5.88;;
25838;SDS011;13669;50.186;27.062;2022-10-15T15:15:23;17.67;;;9.70;;
25838;SDS011;13669;50.186;27.062;2022-10-15T15:17:53;18.42;;;8.38;;
25838;SDS011;13669;50.186;27.062;2022-10-15T15:20:20;14.95;;;7.10;;
25838;SDS011;13669;50.186;27.062;2022-10-15T15:22:53;13.75;;;7.13;;
25838;SDS011;13669;50.186;27.062;2022-10-15T15:28:01;10.85;;;5.57;;
25838;SDS011;13669;50.186;27.062;2022-10-15T15:30:29;16.88;;;7.05;;
25838;SDS011;13669;50.186;27.062;2022-10-15T15:33:00;20.00;;;9.18;;
25838;SDS011;13669;50.186;27.062;2022-10-15T15:35:41;17.27;;;7.75;;
25838;SDS011;13669;50.186;27.062;2022-10-15T15:38:18;29.35;;;13.95;;
25838;SDS011;13669;50.186;27.062;2022-10-15T15:40:46;22.90;;;9.07;;
25838;SDS011;13669;50.186;27.062;2022-10-15T15:43:16;11.20;;;5.38;;
25838;SDS011;13669;50.186;27.062;2022-10-15T15:45:45;12.57;;;4.72;;
25838;SDS011;13669;50.186;27.062;2022-10-15T15:48:12;15.63;;;5.38;;
25838;SDS011;13669;50.186;27.062;2022-10-15T15:50:40;13.55;;;5.57;;
25838;SDS011;13669;50.186;27.062;2022-10-15T15:53:07;15.60;;;7.03;;
25838;SDS011;13669;50.186;27.062;2022-10-15T15:55:37;13.68;;;6.57;;
25838;SDS011;13669;50.186;27.062;2022-10-15T15:58:05;14.00;;;6.35;;
25838;SDS011;13669;50.186;27.062;2022-10-15T16:00:32;11.77;;;6.18;;
25838;SDS011;13669;50.186;27.062;2022-10-15T16:03:00;12.80;;;5.75;;
25838;SDS011;13669;50.186;27.062;2022-10-15T16:05:27;13.27;;;6.15;;
25838;SDS011;13669;50.186;27.062;2022-10-15T16:07:54;21.73;;;7.55;;
25838;SDS011;13669;50.186;27.062;2022-10-15T16:10:22;16.30;;;8.23;;
25838;SDS011;13669;50.186;27.062;2022-10-15T16:12:49;21.27;;;9.88;;
25838;SDS011;13669;50.186;27.062;2022-10-15T16:15:17;20.80;;;12.38;;
25838;SDS011;13669;50.186;27.062;2022-10-15T16:17:44;22.85;;;12.80;;
25838;SDS011;13669;50.186;27.062;2022-10-15T16:20:12;20.25;;;9.25;;
25838;SDS011;13669;50.186;27.062;2022-10-15T16:22:39;18.17;;;9.30;;
25838;SDS011;13669;50.186;27.062;2022-10-15T16:25:08;20.90;;;9.23;;
25838;SDS011;13669;50.186;27.062;2022-10-15T16:27:36;25.02;;;10.07;;
25838;SDS011;13669;50.186;27.062;2022-10-15T16:30:04;36.22;;;10.38;;
25838;SDS011;13669;50.186;27.062;2022-10-15T16:32:31;21.67;;;9.25;;
25838;SDS011;13669;50.186;27.062;2022-10-15T16:34:59;21.35;;;9.98;;
25838;SDS011;13669;50.186;27.062;2022-10-15T16:37:26;25.40;;;10.95;;
25838;SDS011;13669;50.186;27.062;2022-10-15T16:39:54;34.75;;;14.23;;
25838;SDS011;13669;50.186;27.062;2022-10-15T16:42:21;37.08;;;15.73;;
25838;SDS011;13669;50.186;27.062;2022-10-15T16:44:49;42.35;;;19.50;;
25838;SDS011;13669;50.186;27.062;2022-10-15T16:47:18;49.83;;;19.80;;
25838;SDS011;13669;50.186;27.062;2022-10-15T16:49:47;61.17;;;23.98;;
25838;SDS011;13669;50.186;27.062;2022-10-15T16:52:14;60.75;;;23.98;;
25838;SDS011;13669;50.186;27.062;2022-10-15T16:54:41;56.80;;;21.42;;
25838;SDS011;13669;50.186;27.062;2022-10-15T16:57:09;46.47;;;18.48;;
25838;SDS011;13669;50.186;27.062;2022-10-15T16:59:36;44.05;;;18.25;;
25838;SDS011;13669;50.186;27.062;2022-10-15T17:02:04;33.90;;;14.07;;
25838;SDS011;13669;50.186;27.062;2022-10-15T17:04:31;33.05;;;15.05;;
25838;SDS011;13669;50.186;27.062;2022-10-15T17:06:59;40.30;;;16.23;;
25838;SDS011;13669;50.186;27.062;2022-10-15T17:09:26;43.75;;;14.88;;
25838;SDS011;13669;50.186;27.062;2022-10-15T17:11:54;28.80;;;13.52;;
25838;SDS011;13669;50.186;27.062;2022-10-15T17:14:21;34.92;;;14.02;;
25838;SDS011;13669;50.186;27.062;2022-10-15T17:16:50;29.27;;;12.30;;
25838;SDS011;13669;50.186;27.062;2022-10-15T17:19:19;30.05;;;12.27;;
25838;SDS011;13669;50.186;27.062;2022-10-15T17:21:49;29.27;;;13.05;;
25838;SDS011;13669;50.186;27.062;2022-10-15T17:24:17;26.55;;;11.40;;
25838;SDS011;13669;50.186;27.062;2022-10-15T17:26:45;24.65;;;11.02;;
25838;SDS011;13669;50.186;27.062;2022-10-15T17:29:14;22.48;;;10.63;;
25838;SDS011;13669;50.186;27.062;2022-10-15T17:31:46;22.45;;;11.30;;
25838;SDS011;13669;50.186;27.062;2022-10-15T17:34:15;26.40;;;11.60;;
25838;SDS011;13669;50.186;27.062;2022-10-15T17:36:44;20.38;;;10.18;;
25838;SDS011;13669;50.186;27.062;2022-10-15T17:39:14;26.83;;;11.00;;
25838;SDS011;13669;50.186;27.062;2022-10-15T17:41:43;22.77;;;9.70;;
25838;SDS011;13669;50.186;27.062;2022-10-15T17:44:11;18.73;;;8.88;;
25838;SDS011;13669;50.186;27.062;2022-10-15T17:46:39;19.80;;;8.38;;
25838;SDS011;13669;50.186;27.062;2022-10-15T17:49:07;19.02;;;8.32;;
25838;SDS011;13669;50.186;27.062;2022-10-15T17:51:37;22.25;;;7.88;;